Terminal Aerodrome Forecast
Issued by NWS Greer, SC

Home | Current Version | Previous Version | Text Only | Print | Product List | Glossary On
Versions: 1 2 3 4 5 6 7 8 9 10 11 12 13 14 15 16 17 18 19 20 21 22 23 24 25
000
FTUS42 KGSP 250520
TAFGSP
TAF
KGSP 250520Z 2506/2606 30004KT P6SM SCT200
     FM251400 36004KT P6SM SCT200
     FM260000 35005KT P6SM BKN070
     FM260100 35005KT P6SM SCT070=

USA.gov is the U.S. government's official web portal to all federal, state and local government web resources and services.